Time;durP1;ratioP1;P1;durP2;ratioP2;P2;SDS_P1;SDS_P2;PMS_P1;PMS_P2;Temp;Humidity;BMP_temperature;BMP_pressure;BME280_temperature;BME280_humidity;BME280_pressure;Samples;Min_cycle;Max_cycle;Signal;HPM_P1;HPM_P2
2021/12/28 03:46:19;;;;;;;29.35;15.80;;;3.00;97.90;;;;;;5379919;24;20051;-81
2021/12/28 03:48:47;;;;;;;29.10;15.05;;;3.00;97.90;;;;;;4774155;30;20035;-81
2021/12/28 03:51:13;;;;;;;28.27;15.77;;;3.00;97.90;;;;;;4800279;30;20031;-81
2021/12/28 03:53:39;;;;;;;34.37;14.77;;;3.00;98.00;;;;;;4779578;30;20489;-81
2021/12/28 03:56:08;;;;;;;26.70;14.65;;;3.00;98.00;;;;;;4776745;29;20031;-79
2021/12/28 03:58:35;;;;;;;24.15;14.07;;;3.00;98.00;;;;;;4796465;29;20072;-80
2021/12/28 04:01:03;;;;;;;;;;;3.10;97.80;;;;;;4766898;30;20283;-79
2021/12/28 04:03:29;;;;;;;29.08;14.88;;;3.10;98.00;;;;;;4781624;30;19913;-81
2021/12/28 04:05:55;;;;;;;33.90;15.77;;;3.10;98.10;;;;;;4781217;30;20051;-81
2021/12/28 04:08:23;;;;;;;29.13;14.10;;;3.10;98.00;;;;;;4781456;30;20055;-82
2021/12/28 04:10:54;;;;;;;24.95;14.40;;;3.10;98.10;;;;;;4780756;29;20057;-80
2021/12/28 04:13:21;;;;;;;29.92;14.85;;;3.10;98.10;;;;;;4792212;30;20374;-80
2021/12/28 04:15:47;;;;;;;;;;;3.20;98.00;;;;;;4796199;30;20384;-80
2021/12/28 04:18:14;;;;;;;29.17;14.40;;;3.20;97.90;;;;;;4778258;30;19953;-80
2021/12/28 04:20:40;;;;;;;32.42;15.73;;;3.20;97.90;;;;;;4784128;30;20211;-79
2021/12/28 04:23:06;;;;;;;29.95;15.57;;;3.20;97.80;;;;;;4769877;30;20035;-80
2021/12/28 04:25:33;;;;;;;26.52;15.60;;;3.10;98.20;;;;;;4784554;29;20096;-80
2021/12/28 04:27:59;;;;;;;29.58;15.57;;;3.10;98.00;;;;;;4799646;30;20035;-80
2021/12/28 04:30:25;;;;;;;25.70;14.90;;;3.10;98.10;;;;;;4799451;29;20267;-80
2021/12/28 04:32:51;;;;;;;31.73;15.32;;;3.10;98.20;;;;;;4770085;30;20219;-80
2021/12/28 04:35:16;;;;;;;26.70;15.00;;;3.00;98.20;;;;;;4769893;30;20039;-81
2021/12/28 04:37:44;;;;;;;25.88;14.68;;;3.10;98.40;;;;;;4755237;30;20043;-80
2021/12/28 04:40:11;;;;;;;;;;;3.10;98.20;;;;;;4770338;30;20122;-80
2021/12/28 04:42:38;;;;;;;30.52;16.10;;;3.10;98.30;;;;;;4783982;30;19917;-81
2021/12/28 04:45:06;;;;;;;;;;;3.10;98.30;;;;;;4770302;30;20070;-80
2021/12/28 04:47:32;;;;;;;28.05;14.95;;;3.10;98.20;;;;;;4772027;30;19932;-81
2021/12/28 04:49:59;;;;;;;29.47;16.10;;;3.10;98.20;;;;;;4788377;29;20060;-81
2021/12/28 04:52:25;;;;;;;32.13;16.15;;;3.10;98.30;;;;;;4760620;30;20314;-79
2021/12/28 04:54:51;;;;;;;33.13;16.48;;;3.10;98.40;;;;;;4765364;30;20050;-80
2021/12/28 04:57:16;;;;;;;28.40;15.07;;;3.00;98.30;;;;;;4755243;30;20040;-80
2021/12/28 04:59:42;;;;;;;35.03;16.83;;;3.10;98.40;;;;;;4759166;30;20115;-80
2021/12/28 05:02:08;;;;;;;35.42;17.33;;;3.00;98.50;;;;;;4773661;30;20042;-80
2021/12/28 05:04:34;;;;;;;30.48;15.93;;;3.00;98.70;;;;;;4752649;30;20048;-80
2021/12/28 05:07:00;;;;;;;36.45;16.92;;;3.00;98.70;;;;;;4772406;30;20094;-80
2021/12/28 05:09:25;;;;;;;32.58;16.13;;;3.00;98.80;;;;;;4778459;30;20058;-80
2021/12/28 05:11:51;;;;;;;38.10;18.38;;;3.00;98.90;;;;;;4769285;30;20032;-79
2021/12/28 05:14:18;;;;;;;38.83;18.83;;;3.00;98.80;;;;;;4768823;30;20043;-79
2021/12/28 05:16:45;;;;;;;;;;;3.00;98.80;;;;;;4749105;30;20052;-80
2021/12/28 05:19:11;;;;;;;37.00;18.38;;;3.00;99.00;;;;;;4772321;30;20247;-80
2021/12/28 05:21:38;;;;;;;35.10;18.42;;;3.00;99.10;;;;;;4790701;30;20036;-80
2021/12/28 05:24:04;;;;;;;43.10;19.30;;;3.00;99.20;;;;;;4777081;30;20039;-79
2021/12/28 05:26:30;;;;;;;36.70;19.63;;;3.00;99.30;;;;;;4781367;29;20141;-80
2021/12/28 05:28:56;;;;;;;35.78;19.13;;;3.00;99.20;;;;;;4748182;30;20051;-80
2021/12/28 05:31:25;;;;;;;34.85;18.05;;;3.00;99.20;;;;;;4775388;30;20261;-80
2021/12/28 05:33:52;;;;;;;36.65;20.00;;;3.00;99.20;;;;;;4767222;30;20076;-79
2021/12/28 05:36:19;;;;;;;;;;;3.00;99.30;;;;;;4772494;30;20129;-80
2021/12/28 05:38:45;;;;;;;43.00;20.13;;;2.90;99.60;;;;;;4776595;30;19920;-80
2021/12/28 05:41:10;;;;;;;42.15;19.48;;;2.90;99.50;;;;;;4763862;30;20082;-79
2021/12/28 05:43:36;;;;;;;41.97;22.02;;;3.00;99.80;;;;;;4736621;30;20040;-80
2021/12/28 05:46:03;;;;;;;49.47;22.25;;;2.90;99.90;;;;;;4769112;30;20362;-80
2021/12/28 05:48:28;;;;;;;45.55;21.77;;;2.90;99.90;;;;;;4774440;29;20032;-80
2021/12/28 05:50:55;;;;;;;51.60;24.83;;;2.90;99.90;;;;;;4760824;30;20074;-80
2021/12/28 05:53:20;;;;;;;48.70;23.85;;;2.90;99.90;;;;;;4754207;30;20550;-80
2021/12/28 05:55:47;;;;;;;51.92;25.70;;;3.00;99.90;;;;;;4766755;30;20153;-80
2021/12/28 05:58:12;;;;;;;52.97;25.73;;;3.00;99.90;;;;;;4769479;30;20406;-80
2021/12/28 06:00:38;;;;;;;59.97;28.55;;;3.00;99.90;;;;;;4783211;29;20031;-80
2021/12/28 06:03:05;;;;;;;55.00;26.20;;;3.00;99.90;;;;;;4762976;30;20040;-80
2021/12/28 06:05:30;;;;;;;56.85;26.67;;;3.00;99.90;;;;;;4780965;30;20036;-80
2021/12/28 06:07:56;;;;;;;56.42;26.88;;;2.90;99.90;;;;;;4778174;30;20041;-80
2021/12/28 06:10:22;;;;;;;60.85;27.75;;;2.90;99.90;;;;;;4765812;30;20023;-80
2021/12/28 06:12:49;;;;;;;64.05;30.67;;;2.90;99.90;;;;;;4766427;30;20322;-79
2021/12/28 06:15:15;;;;;;;;;;;3.00;99.90;;;;;;4757228;30;20046;-80
2021/12/28 06:17:41;;;;;;;65.00;27.92;;;3.00;99.90;;;;;;4790810;30;20108;-80
2021/12/28 06:20:07;;;;;;;68.57;30.70;;;3.00;99.90;;;;;;4783911;30;20111;-80
2021/12/28 06:22:33;;;;;;;69.22;30.92;;;3.00;99.90;;;;;;4772717;30;20327;-81
2021/12/28 06:24:59;;;;;;;73.70;32.35;;;2.90;99.90;;;;;;4765631;30;20096;-80
2021/12/28 06:27:25;;;;;;;71.20;32.83;;;2.90;99.90;;;;;;4782048;30;20035;-80
2021/12/28 06:29:51;;;;;;;72.97;33.65;;;3.00;99.90;;;;;;4756112;30;20093;-81
2021/12/28 06:32:17;;;;;;;66.15;30.90;;;3.00;99.90;;;;;;4779876;30;20311;-80
2021/12/28 06:34:43;;;;;;;68.72;31.38;;;3.00;99.90;;;;;;4773450;30;20234;-81
2021/12/28 06:37:08;;;;;;;77.57;30.90;;;3.10;99.90;;;;;;4771338;30;20339;-80
2021/12/28 06:39:34;;;;;;;72.45;32.45;;;3.00;99.90;;;;;;4756327;30;20071;-80
2021/12/28 06:42:00;;;;;;;85.80;34.08;;;3.00;99.90;;;;;;4772717;30;20035;-80
2021/12/28 06:44:26;;;;;;;74.00;32.78;;;3.00;99.90;;;;;;4765932;30;20036;-80
2021/12/28 06:46:52;;;;;;;83.05;35.72;;;3.00;99.90;;;;;;4752309;30;20046;-80
2021/12/28 06:49:18;;;;;;;83.65;36.22;;;3.00;99.90;;;;;;4780083;30;20035;-80
2021/12/28 06:51:45;;;;;;;93.18;39.35;;;3.00;99.90;;;;;;4759739;30;20035;-81
2021/12/28 06:54:13;;;;;;;91.40;38.45;;;3.00;99.90;;;;;;4797679;29;20041;-80
2021/12/28 06:56:39;;;;;;;92.30;41.53;;;3.00;99.90;;;;;;4763665;30;20038;-80
2021/12/28 06:59:05;;;;;;;91.20;37.33;;;3.00;99.90;;;;;;4764379;30;20328;-81
2021/12/28 07:01:30;;;;;;;96.20;37.80;;;3.00;99.90;;;;;;4749894;30;20067;-80
2021/12/28 07:03:56;;;;;;;90.68;37.30;;;2.90;99.90;;;;;;4778863;30;20048;-80
2021/12/28 07:06:24;;;;;;;84.38;36.15;;;2.90;99.90;;;;;;4779891;30;20040;-80
2021/12/28 07:08:50;;;;;;;94.60;37.15;;;2.90;99.90;;;;;;4752463;30;20256;-80
2021/12/28 07:11:17;;;;;;;89.63;35.50;;;2.90;99.90;;;;;;4781424;30;20031;-80
2021/12/28 07:13:43;;;;;;;78.60;29.00;;;2.80;99.90;;;;;;4775785;30;20346;-80
2021/12/28 07:16:09;;;;;;;90.22;37.05;;;2.80;99.90;;;;;;4750627;30;20043;-80
2021/12/28 07:18:34;;;;;;;87.38;34.17;;;2.80;99.90;;;;;;4733077;30;20118;-80
2021/12/28 07:21:02;;;;;;;95.38;36.20;;;2.80;99.90;;;;;;4781676;30;20346;-81
2021/12/28 07:23:29;;;;;;;100.57;36.17;;;2.80;99.90;;;;;;4735538;30;20036;-80
2021/12/28 07:25:55;;;;;;;;;;;2.80;99.90;;;;;;4749189;30;20048;-80
2021/12/28 07:28:22;;;;;;;90.03;35.73;;;2.80;99.90;;;;;;4763756;30;19939;-80
2021/12/28 07:30:48;;;;;;;85.03;33.92;;;2.80;99.90;;;;;;4780051;30;20071;-80
2021/12/28 07:33:14;;;;;;;87.88;35.00;;;2.80;99.90;;;;;;4781500;30;20136;-80
2021/12/28 07:35:40;;;;;;;78.27;34.07;;;2.80;99.90;;;;;;4766320;30;20091;-80
2021/12/28 07:38:06;;;;;;;94.25;36.35;;;2.80;99.90;;;;;;4763514;30;20055;-80
2021/12/28 07:40:32;;;;;;;93.13;35.10;;;2.80;99.90;;;;;;4764969;30;20116;-81
2021/12/28 07:42:58;;;;;;;91.32;36.95;;;2.80;99.90;;;;;;4751561;30;20024;-80
2021/12/28 07:45:24;;;;;;;100.18;37.50;;;2.90;99.90;;;;;;4764812;30;20035;-80
2021/12/28 07:47:50;;;;;;;83.65;34.60;;;2.90;99.90;;;;;;4780268;30;20058;-80
2021/12/28 07:50:17;;;;;;;87.43;35.80;;;2.90;99.90;;;;;;4783406;30;20301;-80
2021/12/28 07:52:45;;;;;;;92.65;34.30;;;3.00;99.90;;;;;;4763755;30;20107;-80
2021/12/28 07:55:12;;;;;;;86.88;34.28;;;3.10;99.90;;;;;;4782224;29;20339;-80
2021/12/28 07:57:38;;;;;;;;;;;3.10;99.90;;;;;;4766646;30;20039;-80
2021/12/28 08:00:07;;;;;;;92.55;35.35;;;3.10;99.90;;;;;;4783971;30;20234;-81
2021/12/28 08:02:38;;;;;;;98.35;35.53;;;3.00;99.90;;;;;;4781765;30;20451;-81
2021/12/28 08:05:04;;;;;;;92.97;35.70;;;2.90;99.90;;;;;;4752114;30;20043;-81
2021/12/28 08:07:30;;;;;;;92.77;36.17;;;2.90;99.90;;;;;;4766269;30;20040;-81
2021/12/28 08:09:56;;;;;;;89.53;36.22;;;2.90;99.90;;;;;;4766962;30;20063;-80
2021/12/28 08:12:21;;;;;;;100.88;39.70;;;2.90;99.90;;;;;;4781608;30;20027;-81
2021/12/28 08:14:47;;;;;;;105.18;40.78;;;2.90;99.90;;;;;;4738894;30;20038;-80
2021/12/28 08:17:13;;;;;;;96.70;38.28;;;2.90;99.90;;;;;;4766434;30;20081;-80
2021/12/28 08:19:39;;;;;;;99.50;39.47;;;2.90;99.90;;;;;;4765588;30;20085;-80
2021/12/28 08:22:05;;;;;;;105.90;37.60;;;3.00;99.90;;;;;;4748639;30;20332;-81
2021/12/28 08:24:33;;;;;;;93.88;37.97;;;2.90;99.90;;;;;;4750731;30;20048;-81
2021/12/28 08:26:59;;;;;;;95.93;36.72;;;2.90;99.90;;;;;;4755557;30;20035;-81
2021/12/28 08:29:25;;;;;;;91.72;38.17;;;2.80;99.90;;;;;;4781208;30;20058;-81
2021/12/28 08:31:51;;;;;;;99.65;38.50;;;2.90;99.90;;;;;;4754003;30;20043;-81
2021/12/28 08:34:17;;;;;;;100.05;43.50;;;2.90;99.90;;;;;;4766792;30;20050;-81
2021/12/28 08:36:43;;;;;;;90.47;32.95;;;2.90;99.90;;;;;;4765480;30;20261;-81
2021/12/28 08:39:09;;;;;;;97.65;34.85;;;2.90;99.90;;;;;;4780977;30;20047;-80
2021/12/28 08:41:35;;;;;;;100.80;36.97;;;2.80;99.90;;;;;;4766445;30;20362;-81
2021/12/28 08:44:01;;;;;;;96.63;35.72;;;2.80;99.90;;;;;;4766616;30;20111;-80
2021/12/28 08:46:27;;;;;;;90.72;34.75;;;2.80;99.90;;;;;;4758438;30;20058;-81
2021/12/28 08:48:53;;;;;;;93.87;34.17;;;2.90;99.90;;;;;;4755847;30;20055;-81
2021/12/28 08:51:19;;;;;;;83.72;34.08;;;3.00;99.90;;;;;;4776002;29;20031;-81
2021/12/28 08:53:44;;;;;;;89.90;34.58;;;3.00;99.90;;;;;;4761007;30;20043;-80
2021/12/28 08:56:10;;;;;;;90.50;33.45;;;3.10;99.90;;;;;;4755768;30;20035;-80
2021/12/28 08:58:36;;;;;;;88.97;34.45;;;3.10;99.90;;;;;;4751026;30;20027;-80
2021/12/28 09:01:03;;;;;;;97.03;32.88;;;3.10;99.90;;;;;;4738531;30;20039;-80
2021/12/28 09:03:29;;;;;;;89.88;33.72;;;3.10;99.90;;;;;;4765972;30;20084;-80
2021/12/28 09:05:55;;;;;;;91.83;33.60;;;3.10;99.90;;;;;;4768373;30;20056;-80
2021/12/28 09:08:21;;;;;;;88.28;32.78;;;3.10;99.90;;;;;;4758631;30;20042;-80
2021/12/28 09:10:48;;;;;;;89.93;34.63;;;3.10;99.90;;;;;;4755503;30;20032;-80
2021/12/28 09:13:14;;;;;;;82.03;31.50;;;3.10;99.90;;;;;;4772537;29;20031;-81
2021/12/28 09:15:42;;;;;;;95.85;35.30;;;3.10;99.90;;;;;;4781992;30;20347;-80
2021/12/28 09:18:08;;;;;;;101.93;32.22;;;3.00;99.90;;;;;;4763325;30;20271;-81
2021/12/28 09:20:34;;;;;;;89.78;32.08;;;3.00;99.90;;;;;;4801003;29;20043;-81
2021/12/28 09:23:00;;;;;;;90.70;32.07;;;3.00;99.90;;;;;;4781031;30;20164;-80
2021/12/28 09:25:26;;;;;;;97.88;32.00;;;3.00;99.90;;;;;;4756737;30;20071;-81
2021/12/28 09:27:52;;;;;;;80.72;31.73;;;3.10;99.90;;;;;;4782302;30;20019;-81
2021/12/28 09:30:18;;;;;;;90.17;32.50;;;3.10;99.90;;;;;;4773076;30;20232;-80
2021/12/28 09:32:44;;;;;;;84.95;31.33;;;3.10;99.90;;;;;;4767585;30;20038;-80
2021/12/28 09:35:12;;;;;;;95.97;34.30;;;3.10;99.90;;;;;;4760402;30;20213;-81
2021/12/28 09:37:38;;;;;;;94.15;33.10;;;3.10;99.90;;;;;;4767277;30;20067;-81
2021/12/28 09:40:07;;;;;;;102.85;41.95;;;3.10;99.90;;;;;;4767407;30;20353;-81
2021/12/28 09:42:33;;;;;;;84.82;33.20;;;3.10;99.90;;;;;;4786897;29;20050;-82
2021/12/28 09:44:59;;;;;;;88.13;34.33;;;3.10;99.90;;;;;;4790543;30;20031;-81
2021/12/28 09:47:25;;;;;;;83.22;33.25;;;3.10;99.90;;;;;;4754959;30;20113;-81
2021/12/28 09:49:51;;;;;;;88.05;33.38;;;3.10;99.90;;;;;;4781170;29;20262;-81
2021/12/28 09:52:18;;;;;;;89.93;36.22;;;3.10;99.90;;;;;;4766882;30;20032;-81
2021/12/28 09:54:44;;;;;;;90.30;35.72;;;3.10;99.90;;;;;;4787061;30;20351;-80
2021/12/28 09:57:14;;;;;;;70.40;27.07;;;3.20;99.90;;;;;;4744188;30;20099;-81
2021/12/28 09:59:40;;;;;;;63.60;27.17;;;3.30;99.90;;;;;;4782550;30;20262;-80
2021/12/28 10:02:10;;;;;;;80.90;27.92;;;3.30;99.90;;;;;;4787116;30;20081;-80
2021/12/28 10:04:58;;;;;;;68.18;26.08;;;3.30;99.90;;;;;;4758006;30;20039;-81
2021/12/28 10:07:29;;;;;;;66.88;26.08;;;3.30;99.90;;;;;;4775433;30;20031;-80
2021/12/28 10:09:56;;;;;;;60.28;26.02;;;3.30;99.90;;;;;;4780295;30;20028;-81
2021/12/28 10:12:28;;;;;;;55.55;23.73;;;3.30;99.90;;;;;;4780349;30;20042;-82
2021/12/28 10:14:56;;;;;;;63.88;24.63;;;3.30;99.90;;;;;;4779457;30;20103;-82
2021/12/28 10:17:27;;;;;;;64.35;28.70;;;3.30;99.90;;;;;;4765728;30;20047;-82
2021/12/28 10:19:53;;;;;;;68.32;26.20;;;3.30;99.90;;;;;;4766047;30;20089;-81
2021/12/28 10:22:31;;;;;;;58.63;27.23;;;3.20;99.90;;;;;;4741785;30;20044;-81
2021/12/28 10:25:14;;;;;;;54.95;22.77;;;3.20;99.90;;;;;;4777588;30;20035;-81
2021/12/28 10:27:47;;;;;;;55.28;24.63;;;3.30;99.90;;;;;;4787660;29;20061;-81
2021/12/28 10:30:22;;;;;;;54.45;27.13;;;3.30;99.90;;;;;;4766102;30;20035;-81
2021/12/28 10:32:54;;;;;;;59.75;24.10;;;3.30;99.90;;;;;;4784636;30;20039;-81
2021/12/28 10:35:22;;;;;;;66.18;29.02;;;3.30;99.90;;;;;;4768416;30;20058;-81
2021/12/28 10:37:58;;;;;;;54.22;25.13;;;3.20;99.90;;;;;;4785452;30;20042;-81
2021/12/28 10:40:46;;;;;;;55.40;25.08;;;3.20;99.90;;;;;;4787328;30;20035;-81
2021/12/28 10:43:14;;;;;;;55.60;24.33;;;3.20;99.90;;;;;;4769654;30;20047;-82
2021/12/28 10:45:40;;;;;;;56.92;25.20;;;3.20;99.90;;;;;;4781901;30;20048;-81
2021/12/28 10:48:14;;;;;;;51.90;23.30;;;3.20;99.90;;;;;;4775979;29;20050;-81
2021/12/28 10:50:55;;;;;;;55.80;23.50;;;3.20;99.90;;;;;;4767978;30;20064;-82
2021/12/28 10:53:25;;;;;;;55.58;26.38;;;3.10;99.90;;;;;;4787728;30;20032;-82
2021/12/28 10:55:56;;;;;;;62.90;28.25;;;3.10;99.90;;;;;;4764042;30;20048;-81
2021/12/28 10:58:31;;;;;;;48.88;22.10;;;3.10;99.90;;;;;;4781634;30;20035;-81
2021/12/28 11:01:04;;;;;;;49.27;22.10;;;3.10;99.90;;;;;;4778709;30;20024;-82
2021/12/28 11:03:34;;;;;;;47.13;19.50;;;3.20;99.90;;;;;;4766332;30;20371;-81
2021/12/28 11:06:05;;;;;;;42.75;20.08;;;3.20;99.90;;;;;;4764776;30;20398;-82
2021/12/28 11:08:32;;;;;;;50.40;20.80;;;3.20;99.90;;;;;;4779147;30;20092;-81
2021/12/28 11:11:01;;;;;;;48.83;19.67;;;3.30;99.90;;;;;;4754850;30;20110;-81
2021/12/28 11:13:30;;;;;;;47.20;20.40;;;3.40;99.90;;;;;;4778862;30;20042;-81
2021/12/28 11:15:58;;;;;;;45.33;20.60;;;3.30;99.90;;;;;;4780828;30;20031;-81
2021/12/28 11:18:31;;;;;;;48.40;21.42;;;3.40;99.90;;;;;;4770788;30;20047;-81
2021/12/28 11:20:59;;;;;;;50.20;22.85;;;3.40;99.90;;;;;;4784765;29;20035;-81
2021/12/28 11:23:29;;;;;;;48.42;22.63;;;3.40;99.90;;;;;;4755577;30;20036;-81
2021/12/28 11:26:08;;;;;;;44.25;20.05;;;3.50;99.90;;;;;;4783990;30;20106;-82
2021/12/28 11:28:35;;;;;;;46.25;21.48;;;3.40;99.90;;;;;;4765936;30;20258;-82
2021/12/28 11:31:06;;;;;;;53.88;22.77;;;3.40;99.90;;;;;;4751443;30;20086;-82
2021/12/28 11:33:45;;;;;;;48.10;22.02;;;3.30;99.90;;;;;;4771327;29;20047;-81
2021/12/28 11:36:11;;;;;;;46.85;22.48;;;3.30;99.90;;;;;;4781096;30;20032;-82
2021/12/28 11:38:38;;;;;;;46.60;21.52;;;3.40;99.90;;;;;;4783524;30;20035;-82
2021/12/28 11:41:05;;;;;;;44.45;20.58;;;3.30;99.90;;;;;;4751461;30;20096;-81
2021/12/28 11:43:39;;;;;;;47.33;20.98;;;3.40;99.90;;;;;;4769708;30;20066;-81
2021/12/28 11:46:06;;;;;;;40.47;20.13;;;3.30;99.90;;;;;;4762317;30;20054;-81
2021/12/28 11:48:32;;;;;;;;;;;3.30;99.90;;;;;;4786615;30;20027;-82
2021/12/28 11:50:58;;;;;;;42.63;19.20;;;3.30;99.90;;;;;;4778725;30;19917;-81
2021/12/28 11:53:28;;;;;;;40.80;20.23;;;3.40;99.90;;;;;;4780532;30;20036;-82
2021/12/28 11:56:00;;;;;;;48.63;21.10;;;3.40;99.90;;;;;;4763297;30;20039;-81
2021/12/28 11:58:59;;;;;;;44.33;20.23;;;3.40;99.90;;;;;;4765211;30;20204;-81
2021/12/28 12:01:42;;;;;;;44.00;20.25;;;3.30;99.90;;;;;;4785590;30;20325;-81
2021/12/28 12:04:27;;;;;;;48.90;21.67;;;3.30;99.90;;;;;;4776762;30;20039;-81
2021/12/28 12:07:14;;;;;;;50.22;21.70;;;3.30;99.90;;;;;;4778094;30;20143;-81
2021/12/28 12:09:49;;;;;;;46.10;20.95;;;3.30;99.90;;;;;;4783115;30;20035;-81
2021/12/28 12:12:17;;;;;;;48.25;20.63;;;3.30;99.90;;;;;;4760604;30;20039;-81
2021/12/28 12:15:08;;;;;;;48.40;21.15;;;3.30;99.90;;;;;;4772126;30;20042;-81
2021/12/28 12:17:39;;;;;;;43.67;20.75;;;3.40;99.90;;;;;;4720943;30;20055;-81
2021/12/28 12:20:24;;;;;;;45.53;20.38;;;3.30;99.90;;;;;;4756972;30;20048;-81
2021/12/28 12:22:55;;;;;;;44.28;20.48;;;3.30;99.90;;;;;;4719755;30;20351;-81
2021/12/28 12:25:29;;;;;;;44.10;20.90;;;3.30;99.90;;;;;;4745382;30;20044;-81
2021/12/28 12:28:01;;;;;;;43.67;20.17;;;3.30;99.90;;;;;;4732227;30;20438;-81
2021/12/28 12:30:29;;;;;;;48.92;22.48;;;3.20;99.90;;;;;;4723244;30;20109;-81
2021/12/28 12:32:55;;;;;;;42.33;21.95;;;3.20;99.90;;;;;;4720727;30;20036;-82
2021/12/28 12:35:41;;;;;;;40.63;19.83;;;3.30;99.90;;;;;;4718854;30;20166;-81
2021/12/28 12:38:10;;;;;;;40.95;19.30;;;3.30;99.90;;;;;;4754582;30;20086;-81
2021/12/28 12:41:09;;;;;;;44.30;19.45;;;3.20;99.90;;;;;;4750205;30;20093;-81
2021/12/28 12:43:35;;;;;;;37.10;19.45;;;3.20;99.90;;;;;;4755209;30;20048;-82
2021/12/28 12:46:19;;;;;;;41.13;19.85;;;3.20;99.90;;;;;;4736799;30;20162;-81
2021/12/28 12:48:44;;;;;;;41.97;20.90;;;3.10;99.90;;;;;;4738864;30;20052;-81
2021/12/28 12:51:19;;;;;;;47.28;22.40;;;3.10;99.90;;;;;;4739355;30;20247;-82
2021/12/28 12:54:02;;;;;;;39.80;20.58;;;3.10;99.90;;;;;;4745852;30;20058;-81
2021/12/28 12:56:37;;;;;;;45.05;22.73;;;3.20;99.90;;;;;;4795078;29;20094;-81
2021/12/28 12:59:19;;;;;;;38.88;19.30;;;3.20;99.90;;;;;;4776468;30;20074;-81
2021/12/28 13:01:49;;;;;;;38.78;18.58;;;3.30;99.90;;;;;;4774355;30;20090;-81
2021/12/28 13:04:24;;;;;;;34.40;17.25;;;3.30;99.90;;;;;;4785340;30;20331;-80
2021/12/28 13:07:16;;;;;;;36.05;17.60;;;3.30;99.90;;;;;;4772906;29;20063;-80
2021/12/28 13:10:07;;;;;;;34.40;16.52;;;3.30;99.90;;;;;;4766317;30;20032;-80
2021/12/28 13:12:35;;;;;;;35.22;16.98;;;3.30;99.90;;;;;;4735835;30;20048;-81
2021/12/28 13:15:02;;;;;;;33.85;16.85;;;3.30;99.90;;;;;;4741527;30;20056;-81
2021/12/28 13:17:29;;;;;;;;;;;3.30;99.90;;;;;;4728043;30;20248;-81
2021/12/28 13:20:02;;;;;;;33.25;15.85;;;3.30;99.90;;;;;;4736398;30;20379;-81
2021/12/28 13:22:33;;;;;;;36.75;18.23;;;3.20;99.90;;;;;;4737973;30;20374;-81
2021/12/28 13:24:59;;;;;;;34.17;16.58;;;3.30;99.90;;;;;;4726902;30;20243;-81
2021/12/28 13:27:26;;;;;;;34.33;17.13;;;3.30;99.90;;;;;;4738046;30;20029;-81
2021/12/28 13:29:55;;;;;;;41.40;19.55;;;3.30;99.90;;;;;;4727514;30;20135;-81
2021/12/28 13:32:34;;;;;;;42.35;19.08;;;3.30;99.90;;;;;;4736219;30;20039;-81
2021/12/28 13:35:15;;;;;;;36.03;17.83;;;3.30;99.90;;;;;;4740259;30;20056;-81
2021/12/28 13:37:52;;;;;;;34.35;16.00;;;3.30;99.90;;;;;;4736891;30;20082;-81
2021/12/28 13:40:30;;;;;;;37.30;19.25;;;3.20;99.90;;;;;;4735997;30;20104;-80
2021/12/28 13:42:59;;;;;;;37.72;17.98;;;3.20;99.90;;;;;;4732947;30;20268;-81
2021/12/28 13:45:29;;;;;;;44.53;18.98;;;3.20;99.90;;;;;;4737510;30;20364;-81
2021/12/28 13:47:57;;;;;;;37.95;17.95;;;3.20;99.90;;;;;;4756491;30;20052;-80
2021/12/28 13:50:23;;;;;;;37.00;17.13;;;3.20;99.90;;;;;;4764155;30;20046;-80
2021/12/28 13:52:52;;;;;;;35.13;15.88;;;3.20;99.90;;;;;;4784881;29;20031;-81
2021/12/28 13:55:30;;;;;;;36.80;17.58;;;3.10;99.90;;;;;;4770289;30;20031;-81
2021/12/28 13:57:58;;;;;;;33.35;17.88;;;3.20;99.90;;;;;;4781519;30;20345;-80
2021/12/28 14:00:27;;;;;;;44.85;19.30;;;3.20;99.90;;;;;;4781818;29;20318;-80
2021/12/28 14:02:57;;;;;;;38.20;18.52;;;3.20;99.90;;;;;;4779341;30;21224;-80
2021/12/28 14:05:23;;;;;;;37.38;16.63;;;3.30;99.90;;;;;;4780231;30;20242;-81
2021/12/28 14:07:49;;;;;;;41.78;18.17;;;3.30;99.90;;;;;;4763595;30;20038;-80
2021/12/28 14:10:16;;;;;;;37.05;16.85;;;3.30;99.90;;;;;;4767125;30;20384;-80
2021/12/28 14:12:42;;;;;;;38.08;17.23;;;3.20;99.90;;;;;;4778875;30;20095;-80
2021/12/28 14:15:16;;;;;;;44.60;19.60;;;3.20;99.90;;;;;;4750101;30;20047;-80
2021/12/28 14:17:44;;;;;;;37.90;17.58;;;3.20;99.90;;;;;;4766532;30;20040;-81
2021/12/28 14:20:10;;;;;;;38.90;17.38;;;3.20;99.90;;;;;;4751228;30;20047;-80
2021/12/28 14:22:36;;;;;;;39.17;17.20;;;3.20;99.90;;;;;;4765145;30;20332;-80
2021/12/28 14:25:06;;;;;;;37.10;18.98;;;3.20;99.90;;;;;;4751951;30;20096;-81
2021/12/28 14:27:34;;;;;;;40.50;18.02;;;3.20;99.90;;;;;;4779491;30;20055;-81
2021/12/28 14:30:16;;;;;;;41.03;18.80;;;3.20;99.90;;;;;;4786472;30;20062;-81
2021/12/28 14:32:49;;;;;;;35.15;17.17;;;3.10;99.90;;;;;;4765502;30;20075;-81
2021/12/28 14:35:18;;;;;;;33.55;16.50;;;3.10;99.90;;;;;;4779488;30;20043;-81
2021/12/28 14:37:46;;;;;;;37.85;17.23;;;3.00;99.90;;;;;;4764515;30;20028;-81
2021/12/28 14:40:26;;;;;;;42.67;19.50;;;3.00;99.90;;;;;;4751004;30;20351;-81
2021/12/28 14:42:52;;;;;;;42.45;18.98;;;3.00;99.90;;;;;;4781224;30;20035;-81
2021/12/28 14:45:25;;;;;;;46.33;21.10;;;3.00;99.90;;;;;;4784767;29;20107;-81
2021/12/28 14:47:51;;;;;;;39.88;19.88;;;3.00;99.90;;;;;;4798867;29;20252;-81
2021/12/28 14:50:31;;;;;;;45.55;20.75;;;3.00;99.90;;;;;;4750534;30;20039;-81
2021/12/28 14:53:00;;;;;;;46.25;22.33;;;3.00;99.90;;;;;;4778298;30;20028;-82
2021/12/28 14:55:28;;;;;;;50.63;22.20;;;3.10;99.90;;;;;;4767141;30;20035;-81
2021/12/28 14:57:59;;;;;;;48.55;22.23;;;3.00;99.90;;;;;;4783126;30;20059;-81
2021/12/28 15:00:40;;;;;;;54.83;24.75;;;2.90;99.90;;;;;;4770308;30;20042;-81
2021/12/28 15:03:16;;;;;;;48.60;20.85;;;3.00;99.90;;;;;;4762844;30;20035;-81
2021/12/28 15:05:54;;;;;;;42.93;18.83;;;3.00;99.90;;;;;;4778595;30;20036;-81
2021/12/28 15:08:21;;;;;;;40.30;18.80;;;3.00;99.90;;;;;;4781821;30;20063;-82
2021/12/28 15:10:48;;;;;;;;;;;3.00;99.90;;;;;;4764131;30;20358;-81
2021/12/28 15:13:17;;;;;;;38.55;16.95;;;3.00;99.90;;;;;;4781887;30;19932;-82
2021/12/28 15:15:43;;;;;;;45.33;17.77;;;2.90;99.90;;;;;;4778957;30;20223;-81
2021/12/28 15:18:11;;;;;;;40.90;17.58;;;3.00;99.90;;;;;;4767273;30;20356;-81
2021/12/28 15:20:37;;;;;;;39.75;16.40;;;3.00;99.90;;;;;;4755267;30;21253;-81
2021/12/28 15:23:03;;;;;;;39.85;17.13;;;3.00;99.90;;;;;;4763930;30;20032;-81
2021/12/28 15:25:31;;;;;;;40.13;18.00;;;3.00;99.90;;;;;;4779030;30;20054;-81
2021/12/28 15:27:58;;;;;;;37.42;17.42;;;3.00;99.90;;;;;;4768044;30;20050;-81
2021/12/28 15:30:32;;;;;;;42.10;20.50;;;3.00;99.90;;;;;;4749325;30;20223;-82
2021/12/28 15:32:58;;;;;;;41.38;19.40;;;3.00;99.90;;;;;;4778653;30;20091;-81
2021/12/28 15:35:33;;;;;;;39.42;18.00;;;3.00;99.90;;;;;;4771013;30;20056;-81
2021/12/28 15:38:02;;;;;;;40.88;18.85;;;3.00;99.90;;;;;;4769668;30;20063;-80
2021/12/28 15:40:35;;;;;;;45.00;20.23;;;3.00;99.90;;;;;;4753159;30;20174;-81
2021/12/28 15:43:02;;;;;;;45.33;19.90;;;3.10;99.90;;;;;;4773208;30;20027;-81
2021/12/28 15:45:28;;;;;;;49.75;21.92;;;3.00;99.90;;;;;;4753235;30;20111;-81
2021/12/28 15:47:54;;;;;;;45.45;20.42;;;3.00;99.90;;;;;;4764699;30;20043;-81
2021/12/28 15:50:21;;;;;;;46.40;17.90;;;3.10;99.90;;;;;;4770823;30;20051;-82
2021/12/28 15:52:47;;;;;;;49.22;21.70;;;3.00;99.90;;;;;;4764822;30;20386;-81
2021/12/28 15:55:13;;;;;;;44.85;19.92;;;3.10;99.90;;;;;;4748981;30;20035;-81
2021/12/28 15:57:38;;;;;;;40.42;19.50;;;3.10;99.90;;;;;;4778891;29;20115;-81
2021/12/28 16:00:06;;;;;;;49.05;21.30;;;3.10;99.90;;;;;;4799251;29;20039;-81
2021/12/28 16:02:35;;;;;;;49.78;20.15;;;3.10;99.90;;;;;;4782617;30;20043;-81
2021/12/28 16:05:01;;;;;;;58.15;24.83;;;3.10;99.90;;;;;;4763843;30;20231;-81
2021/12/28 16:07:27;;;;;;;53.10;22.70;;;3.20;99.90;;;;;;4782463;30;20023;-81
2021/12/28 16:09:52;;;;;;;51.80;22.70;;;3.10;99.90;;;;;;4735376;30;20335;-81
2021/12/28 16:12:18;;;;;;;51.80;24.25;;;3.10;99.90;;;;;;4748123;30;20243;-81
2021/12/28 16:14:44;;;;;;;53.05;21.38;;;3.10;99.90;;;;;;4768318;30;20039;-81
2021/12/28 16:17:10;;;;;;;56.33;25.92;;;3.10;99.90;;;;;;4773007;30;20036;-82
2021/12/28 16:19:37;;;;;;;65.72;29.67;;;3.10;99.90;;;;;;4769262;30;20068;-81
2021/12/28 16:22:06;;;;;;;65.82;27.67;;;3.10;99.90;;;;;;4784467;30;20866;-80
2021/12/28 16:24:31;;;;;;;59.25;25.95;;;3.10;99.90;;;;;;4770277;30;20039;-81
2021/12/28 16:26:57;;;;;;;58.92;29.58;;;3.10;99.90;;;;;;4770521;30;20070;-81
2021/12/28 16:29:23;;;;;;;61.33;27.40;;;3.10;99.90;;;;;;4740259;30;20024;-81
2021/12/28 16:31:49;;;;;;;55.60;26.42;;;3.10;99.90;;;;;;4763872;30;20050;-81
2021/12/28 16:34:15;;;;;;;56.80;26.27;;;3.00;99.90;;;;;;4776498;30;20060;-82